sensor_id;sensor_type;location;lat;lon;timestamp;temperature;humidity
51863;DHT22;37900;52.996;6.278;2022-09-24T00:01:28;17.70;99.90
51863;DHT22;37900;52.996;6.278;2022-09-24T00:04:00;17.70;99.90
51863;DHT22;37900;52.996;6.278;2022-09-24T00:06:28;17.70;99.90
51863;DHT22;37900;52.996;6.278;2022-09-24T00:08:55;17.70;99.90
51863;DHT22;37900;52.996;6.278;2022-09-24T00:11:23;17.70;99.90
51863;DHT22;37900;52.996;6.278;2022-09-24T00:13:49;17.70;99.90
51863;DHT22;37900;52.996;6.278;2022-09-24T00:16:16;17.70;99.90
51863;DHT22;37900;52.996;6.278;2022-09-24T00:18:43;17.70;99.90
51863;DHT22;37900;52.996;6.278;2022-09-24T00:23:41;17.70;99.90
51863;DHT22;37900;52.996;6.278;2022-09-24T00:26:11;17.70;99.90
51863;DHT22;37900;52.996;6.278;2022-09-24T00:28:57;17.70;99.90
51863;DHT22;37900;52.996;6.278;2022-09-24T00:31:23;17.70;99.90
51863;DHT22;37900;52.996;6.278;2022-09-24T00:33:49;17.70;99.90
51863;DHT22;37900;52.996;6.278;2022-09-24T00:36:18;17.70;99.90
51863;DHT22;37900;52.996;6.278;2022-09-24T00:38:46;17.70;99.90
51863;DHT22;37900;52.996;6.278;2022-09-24T00:41:12;17.70;99.90
51863;DHT22;37900;52.996;6.278;2022-09-24T00:43:38;17.70;99.90
51863;DHT22;37900;52.996;6.278;2022-09-24T00:46:24;17.70;99.90
51863;DHT22;37900;52.996;6.278;2022-09-24T00:48:56;17.70;99.90
51863;DHT22;37900;52.996;6.278;2022-09-24T00:51:24;17.70;99.90
51863;DHT22;37900;52.996;6.278;2022-09-24T00:53:55;17.70;99.90
51863;DHT22;37900;52.996;6.278;2022-09-24T00:56:22;17.70;99.90
51863;DHT22;37900;52.996;6.278;2022-09-24T00:58:51;17.70;99.90
51863;DHT22;37900;52.996;6.278;2022-09-24T01:01:21;17.70;99.90
51863;DHT22;37900;52.996;6.278;2022-09-24T01:03:49;17.70;99.90
51863;DHT22;37900;52.996;6.278;2022-09-24T01:06:16;17.70;99.90
51863;DHT22;37900;52.996;6.278;2022-09-24T01:08:42;17.70;99.90
51863;DHT22;37900;52.996;6.278;2022-09-24T01:16:35;17.70;99.90
51863;DHT22;37900;52.996;6.278;2022-09-24T01:21:53;17.70;99.90
51863;DHT22;37900;52.996;6.278;2022-09-24T01:27:50;17.70;99.90
51863;DHT22;37900;52.996;6.278;2022-09-24T01:30:03;17.70;99.90
51863;DHT22;37900;52.996;6.278;2022-09-24T01:32:42;17.70;99.90
51863;DHT22;37900;52.996;6.278;2022-09-24T01:37:42;17.70;99.90
51863;DHT22;37900;52.996;6.278;2022-09-24T01:40:09;17.70;99.90
51863;DHT22;37900;52.996;6.278;2022-09-24T01:42:35;17.60;99.90
51863;DHT22;37900;52.996;6.278;2022-09-24T01:45:03;17.60;99.90
51863;DHT22;37900;52.996;6.278;2022-09-24T01:47:33;17.70;99.90
51863;DHT22;37900;52.996;6.278;2022-09-24T01:50:08;17.70;99.90
51863;DHT22;37900;52.996;6.278;2022-09-24T01:52:40;17.70;99.90
51863;DHT22;37900;52.996;6.278;2022-09-24T01:55:10;17.60;99.90
51863;DHT22;37900;52.996;6.278;2022-09-24T01:57:48;17.60;99.90
51863;DHT22;37900;52.996;6.278;2022-09-24T02:00:17;17.60;99.90
51863;DHT22;37900;52.996;6.278;2022-09-24T02:02:56;17.60;99.90
51863;DHT22;37900;52.996;6.278;2022-09-24T02:05:35;17.60;99.90
51863;DHT22;37900;52.996;6.278;2022-09-24T02:08:36;17.60;99.90
51863;DHT22;37900;52.996;6.278;2022-09-24T02:11:03;17.60;99.90
51863;DHT22;37900;52.996;6.278;2022-09-24T02:13:35;17.60;99.90
51863;DHT22;37900;52.996;6.278;2022-09-24T02:16:07;17.60;99.90
51863;DHT22;37900;52.996;6.278;2022-09-24T02:18:37;17.60;99.90
51863;DHT22;37900;52.996;6.278;2022-09-24T02:21:08;17.60;99.90
51863;DHT22;37900;52.996;6.278;2022-09-24T02:23:37;17.60;99.90
51863;DHT22;37900;52.996;6.278;2022-09-24T02:26:04;17.60;99.90
51863;DHT22;37900;52.996;6.278;2022-09-24T02:28:31;17.60;99.90
51863;DHT22;37900;52.996;6.278;2022-09-24T02:33:27;17.60;99.90
51863;DHT22;37900;52.996;6.278;2022-09-24T02:36:12;17.60;99.90
51863;DHT22;37900;52.996;6.278;2022-09-24T02:38:38;17.60;99.90
51863;DHT22;37900;52.996;6.278;2022-09-24T02:41:04;17.60;99.90
51863;DHT22;37900;52.996;6.278;2022-09-24T02:43:33;17.60;99.90
51863;DHT22;37900;52.996;6.278;2022-09-24T02:46:00;17.60;99.90
51863;DHT22;37900;52.996;6.278;2022-09-24T02:48:26;17.60;99.90
51863;DHT22;37900;52.996;6.278;2022-09-24T02:50:51;17.60;99.90
51863;DHT22;37900;52.996;6.278;2022-09-24T02:53:18;17.60;99.90
51863;DHT22;37900;52.996;6.278;2022-09-24T02:55:44;17.60;99.90
51863;DHT22;37900;52.996;6.278;2022-09-24T02:58:10;17.60;99.90
51863;DHT22;37900;52.996;6.278;2022-09-24T03:00:35;17.60;99.90
51863;DHT22;37900;52.996;6.278;2022-09-24T03:03:01;17.60;99.90
51863;DHT22;37900;52.996;6.278;2022-09-24T03:05:27;17.60;99.90
51863;DHT22;37900;52.996;6.278;2022-09-24T03:07:53;17.60;99.90
51863;DHT22;37900;52.996;6.278;2022-09-24T03:10:19;17.60;99.90
51863;DHT22;37900;52.996;6.278;2022-09-24T03:12:45;17.60;99.90
51863;DHT22;37900;52.996;6.278;2022-09-24T03:15:10;17.60;99.90
51863;DHT22;37900;52.996;6.278;2022-09-24T03:17:36;17.60;99.90
51863;DHT22;37900;52.996;6.278;2022-09-24T03:20:02;17.60;99.90
51863;DHT22;37900;52.996;6.278;2022-09-24T03:22:28;17.60;99.90
51863;DHT22;37900;52.996;6.278;2022-09-24T03:24:54;17.60;99.90
51863;DHT22;37900;52.996;6.278;2022-09-24T03:27:20;17.60;99.90
51863;DHT22;37900;52.996;6.278;2022-09-24T03:29:45;17.60;99.90
51863;DHT22;37900;52.996;6.278;2022-09-24T03:32:30;17.60;99.90
51863;DHT22;37900;52.996;6.278;2022-09-24T03:34:58;17.60;99.90
51863;DHT22;37900;52.996;6.278;2022-09-24T03:37:26;17.60;99.90
51863;DHT22;37900;52.996;6.278;2022-09-24T03:39:51;17.60;99.90
51863;DHT22;37900;52.996;6.278;2022-09-24T03:42:17;17.60;99.90
51863;DHT22;37900;52.996;6.278;2022-09-24T03:44:43;17.60;99.90
51863;DHT22;37900;52.996;6.278;2022-09-24T03:47:09;17.60;99.90
51863;DHT22;37900;52.996;6.278;2022-09-24T03:49:35;17.50;99.90
51863;DHT22;37900;52.996;6.278;2022-09-24T03:52:00;17.60;99.90
51863;DHT22;37900;52.996;6.278;2022-09-24T03:54:26;17.60;99.90
51863;DHT22;37900;52.996;6.278;2022-09-24T03:56:52;17.60;99.90
51863;DHT22;37900;52.996;6.278;2022-09-24T03:59:17;17.60;99.90
51863;DHT22;37900;52.996;6.278;2022-09-24T04:01:43;17.60;99.90
51863;DHT22;37900;52.996;6.278;2022-09-24T04:04:10;17.60;99.90
51863;DHT22;37900;52.996;6.278;2022-09-24T04:06:38;17.60;99.90
51863;DHT22;37900;52.996;6.278;2022-09-24T04:09:04;17.60;99.90
51863;DHT22;37900;52.996;6.278;2022-09-24T04:11:30;17.60;99.90
51863;DHT22;37900;52.996;6.278;2022-09-24T04:13:56;17.60;99.90
51863;DHT22;37900;52.996;6.278;2022-09-24T04:16:23;17.60;99.90
51863;DHT22;37900;52.996;6.278;2022-09-24T04:18:49;17.60;99.90
51863;DHT22;37900;52.996;6.278;2022-09-24T04:21:15;17.60;99.90
51863;DHT22;37900;52.996;6.278;2022-09-24T04:23:41;17.60;99.90
51863;DHT22;37900;52.996;6.278;2022-09-24T04:26:06;17.60;99.90
51863;DHT22;37900;52.996;6.278;2022-09-24T04:28:32;17.60;99.90
51863;DHT22;37900;52.996;6.278;2022-09-24T04:30:59;17.60;99.90
51863;DHT22;37900;52.996;6.278;2022-09-24T04:33:25;17.60;99.90
51863;DHT22;37900;52.996;6.278;2022-09-24T04:35:50;17.60;99.90
51863;DHT22;37900;52.996;6.278;2022-09-24T04:38:16;17.60;99.90
51863;DHT22;37900;52.996;6.278;2022-09-24T04:40:43;17.60;99.90
51863;DHT22;37900;52.996;6.278;2022-09-24T04:43:11;17.50;99.90
51863;DHT22;37900;52.996;6.278;2022-09-24T04:45:36;17.60;99.90
51863;DHT22;37900;52.996;6.278;2022-09-24T04:48:02;17.50;99.90
51863;DHT22;37900;52.996;6.278;2022-09-24T04:50:29;17.60;99.90
51863;DHT22;37900;52.996;6.278;2022-09-24T04:52:59;17.60;99.90
51863;DHT22;37900;52.996;6.278;2022-09-24T04:55:26;17.50;99.90
51863;DHT22;37900;52.996;6.278;2022-09-24T04:57:56;17.50;99.90
51863;DHT22;37900;52.996;6.278;2022-09-24T05:00:23;17.60;99.90
51863;DHT22;37900;52.996;6.278;2022-09-24T05:02:55;17.60;99.90
51863;DHT22;37900;52.996;6.278;2022-09-24T05:05:21;17.60;99.90
51863;DHT22;37900;52.996;6.278;2022-09-24T05:07:47;17.60;99.90
51863;DHT22;37900;52.996;6.278;2022-09-24T05:10:14;17.60;99.90
51863;DHT22;37900;52.996;6.278;2022-09-24T05:12:40;17.60;99.90
51863;DHT22;37900;52.996;6.278;2022-09-24T05:15:06;17.60;99.90
51863;DHT22;37900;52.996;6.278;2022-09-24T05:17:32;17.50;99.90
51863;DHT22;37900;52.996;6.278;2022-09-24T05:19:57;17.60;99.90
51863;DHT22;37900;52.996;6.278;2022-09-24T05:22:25;17.50;99.90
51863;DHT22;37900;52.996;6.278;2022-09-24T05:24:52;17.50;99.90
51863;DHT22;37900;52.996;6.278;2022-09-24T05:27:18;17.60;99.90
51863;DHT22;37900;52.996;6.278;2022-09-24T05:29:46;17.50;99.90
51863;DHT22;37900;52.996;6.278;2022-09-24T05:32:14;17.60;99.90
51863;DHT22;37900;52.996;6.278;2022-09-24T05:34:42;17.50;99.90
51863;DHT22;37900;52.996;6.278;2022-09-24T05:37:08;17.50;99.90
51863;DHT22;37900;52.996;6.278;2022-09-24T05:39:34;17.50;99.90
51863;DHT22;37900;52.996;6.278;2022-09-24T05:42:00;17.60;99.90
51863;DHT22;37900;52.996;6.278;2022-09-24T05:44:30;17.50;99.90
51863;DHT22;37900;52.996;6.278;2022-09-24T05:46:56;17.50;99.90
51863;DHT22;37900;52.996;6.278;2022-09-24T05:49:23;17.60;99.90
51863;DHT22;37900;52.996;6.278;2022-09-24T05:51:49;17.60;99.90
51863;DHT22;37900;52.996;6.278;2022-09-24T05:54:16;17.50;99.90
51863;DHT22;37900;52.996;6.278;2022-09-24T05:56:42;17.60;99.90
51863;DHT22;37900;52.996;6.278;2022-09-24T05:59:09;17.50;99.90
51863;DHT22;37900;52.996;6.278;2022-09-24T06:01:34;17.50;99.90
51863;DHT22;37900;52.996;6.278;2022-09-24T06:04:00;17.50;99.90
51863;DHT22;37900;52.996;6.278;2022-09-24T06:06:26;17.50;99.90
51863;DHT22;37900;52.996;6.278;2022-09-24T06:08:53;17.50;99.90
51863;DHT22;37900;52.996;6.278;2022-09-24T06:11:19;17.50;99.90
51863;DHT22;37900;52.996;6.278;2022-09-24T06:13:46;17.50;99.90
51863;DHT22;37900;52.996;6.278;2022-09-24T06:16:12;17.50;99.90
51863;DHT22;37900;52.996;6.278;2022-09-24T06:18:39;17.50;99.90
51863;DHT22;37900;52.996;6.278;2022-09-24T06:21:07;17.50;99.90
51863;DHT22;37900;52.996;6.278;2022-09-24T06:23:34;17.60;99.90
51863;DHT22;37900;52.996;6.278;2022-09-24T06:26:00;17.50;99.90
51863;DHT22;37900;52.996;6.278;2022-09-24T06:28:26;17.50;99.90
51863;DHT22;37900;52.996;6.278;2022-09-24T06:30:52;17.50;99.90
51863;DHT22;37900;52.996;6.278;2022-09-24T06:33:18;17.50;99.90
51863;DHT22;37900;52.996;6.278;2022-09-24T06:35:45;17.50;99.90
51863;DHT22;37900;52.996;6.278;2022-09-24T06:38:13;17.50;99.90
51863;DHT22;37900;52.996;6.278;2022-09-24T06:40:39;17.50;99.90
51863;DHT22;37900;52.996;6.278;2022-09-24T06:43:06;17.50;99.90
51863;DHT22;37900;52.996;6.278;2022-09-24T06:45:34;17.50;99.90
51863;DHT22;37900;52.996;6.278;2022-09-24T06:48:01;17.50;99.90
51863;DHT22;37900;52.996;6.278;2022-09-24T06:50:27;17.50;99.90
51863;DHT22;37900;52.996;6.278;2022-09-24T06:52:54;17.50;99.90
51863;DHT22;37900;52.996;6.278;2022-09-24T06:55:20;17.50;99.90
51863;DHT22;37900;52.996;6.278;2022-09-24T06:57:46;17.50;99.90
51863;DHT22;37900;52.996;6.278;2022-09-24T07:00:13;17.50;99.90
51863;DHT22;37900;52.996;6.278;2022-09-24T07:02:40;17.50;99.90
51863;DHT22;37900;52.996;6.278;2022-09-24T07:05:07;17.50;99.90
51863;DHT22;37900;52.996;6.278;2022-09-24T07:07:33;17.50;99.90
51863;DHT22;37900;52.996;6.278;2022-09-24T07:10:01;17.50;99.90
51863;DHT22;37900;52.996;6.278;2022-09-24T07:12:28;17.50;99.90
51863;DHT22;37900;52.996;6.278;2022-09-24T07:14:55;17.50;99.90
51863;DHT22;37900;52.996;6.278;2022-09-24T07:17:21;17.50;99.90
51863;DHT22;37900;52.996;6.278;2022-09-24T07:19:46;17.50;99.90
51863;DHT22;37900;52.996;6.278;2022-09-24T07:22:12;17.50;99.90
51863;DHT22;37900;52.996;6.278;2022-09-24T07:24:38;17.50;99.90
51863;DHT22;37900;52.996;6.278;2022-09-24T07:27:04;17.50;99.90
51863;DHT22;37900;52.996;6.278;2022-09-24T07:29:30;17.50;99.90
51863;DHT22;37900;52.996;6.278;2022-09-24T07:31:56;17.50;99.90
51863;DHT22;37900;52.996;6.278;2022-09-24T07:34:21;17.50;99.90
51863;DHT22;37900;52.996;6.278;2022-09-24T07:36:47;17.50;99.90
51863;DHT22;37900;52.996;6.278;2022-09-24T07:39:13;17.50;99.90
51863;DHT22;37900;52.996;6.278;2022-09-24T07:41:39;17.50;99.90
51863;DHT22;37900;52.996;6.278;2022-09-24T07:44:07;17.50;99.90
51863;DHT22;37900;52.996;6.278;2022-09-24T07:46:33;17.50;99.90
51863;DHT22;37900;52.996;6.278;2022-09-24T07:48:59;17.50;99.90
51863;DHT22;37900;52.996;6.278;2022-09-24T07:51:26;17.50;99.90
51863;DHT22;37900;52.996;6.278;2022-09-24T07:53:54;17.50;99.90
51863;DHT22;37900;52.996;6.278;2022-09-24T07:56:21;17.50;99.90
51863;DHT22;37900;52.996;6.278;2022-09-24T07:58:51;17.50;99.90
51863;DHT22;37900;52.996;6.278;2022-09-24T08:01:17;17.60;99.90
51863;DHT22;37900;52.996;6.278;2022-09-24T08:03:44;17.60;99.90
51863;DHT22;37900;52.996;6.278;2022-09-24T08:06:11;17.50;99.90
51863;DHT22;37900;52.996;6.278;2022-09-24T08:08:37;17.60;99.90
51863;DHT22;37900;52.996;6.278;2022-09-24T08:11:10;17.60;99.90
51863;DHT22;37900;52.996;6.278;2022-09-24T08:13:37;17.50;99.90
51863;DHT22;37900;52.996;6.278;2022-09-24T08:16:03;17.60;99.90
51863;DHT22;37900;52.996;6.278;2022-09-24T08:18:31;17.60;99.90
51863;DHT22;37900;52.996;6.278;2022-09-24T08:20:58;17.60;99.90
51863;DHT22;37900;52.996;6.278;2022-09-24T08:23:24;17.60;99.90
51863;DHT22;37900;52.996;6.278;2022-09-24T08:25:53;17.60;99.90
51863;DHT22;37900;52.996;6.278;2022-09-24T08:28:19;17.60;99.90
51863;DHT22;37900;52.996;6.278;2022-09-24T08:30:45;17.60;99.90
51863;DHT22;37900;52.996;6.278;2022-09-24T08:33:11;17.60;99.90
51863;DHT22;37900;52.996;6.278;2022-09-24T08:35:37;17.60;99.90
51863;DHT22;37900;52.996;6.278;2022-09-24T08:38:07;17.60;99.90
51863;DHT22;37900;52.996;6.278;2022-09-24T08:41:36;17.70;99.90
51863;DHT22;37900;52.996;6.278;2022-09-24T08:44:04;17.70;99.90
51863;DHT22;37900;52.996;6.278;2022-09-24T08:46:49;17.70;99.90
51863;DHT22;37900;52.996;6.278;2022-09-24T08:49:45;17.70;99.90
51863;DHT22;37900;52.996;6.278;2022-09-24T08:54:43;17.70;99.90
51863;DHT22;37900;52.996;6.278;2022-09-24T08:57:12;17.70;99.90
51863;DHT22;37900;52.996;6.278;2022-09-24T08:59:42;17.70;99.90
51863;DHT22;37900;52.996;6.278;2022-09-24T09:02:21;17.70;99.90
51863;DHT22;37900;52.996;6.278;2022-09-24T09:08:00;17.70;99.90
51863;DHT22;37900;52.996;6.278;2022-09-24T09:10:32;17.70;99.90
51863;DHT22;37900;52.996;6.278;2022-09-24T09:13:10;17.70;99.90
51863;DHT22;37900;52.996;6.278;2022-09-24T09:16:03;17.70;99.90
51863;DHT22;37900;52.996;6.278;2022-09-24T09:18:40;17.70;99.90
51863;DHT22;37900;52.996;6.278;2022-09-24T09:21:15;17.70;99.90
51863;DHT22;37900;52.996;6.278;2022-09-24T09:23:49;17.70;99.90
51863;DHT22;37900;52.996;6.278;2022-09-24T09:26:16;17.70;99.90
51863;DHT22;37900;52.996;6.278;2022-09-24T09:28:47;17.70;99.90
51863;DHT22;37900;52.996;6.278;2022-09-24T09:42:37;17.70;99.90
51863;DHT22;37900;52.996;6.278;2022-09-24T09:48:09;17.70;99.90
51863;DHT22;37900;52.996;6.278;2022-09-24T09:50:45;17.70;99.90
51863;DHT22;37900;52.996;6.278;2022-09-24T09:53:24;17.70;99.90
51863;DHT22;37900;52.996;6.278;2022-09-24T09:58:25;17.70;99.90
51863;DHT22;37900;52.996;6.278;2022-09-24T10:00:52;17.70;99.90
51863;DHT22;37900;52.996;6.278;2022-09-24T10:03:32;17.70;99.90
51863;DHT22;37900;52.996;6.278;2022-09-24T10:06:00;17.70;99.90
51863;DHT22;37900;52.996;6.278;2022-09-24T10:08:27;17.70;99.90
51863;DHT22;37900;52.996;6.278;2022-09-24T10:10:55;17.70;99.90
51863;DHT22;37900;52.996;6.278;2022-09-24T10:13:21;17.70;99.90
51863;DHT22;37900;52.996;6.278;2022-09-24T10:15:55;17.80;99.90
51863;DHT22;37900;52.996;6.278;2022-09-24T10:18:31;17.80;99.90
51863;DHT22;37900;52.996;6.278;2022-09-24T10:21:01;17.70;99.90
51863;DHT22;37900;52.996;6.278;2022-09-24T10:23:36;17.70;99.90
51863;DHT22;37900;52.996;6.278;2022-09-24T10:26:04;17.80;99.90
51863;DHT22;37900;52.996;6.278;2022-09-24T10:28:33;17.80;99.90
51863;DHT22;37900;52.996;6.278;2022-09-24T10:31:22;17.70;99.90
51863;DHT22;37900;52.996;6.278;2022-09-24T10:33:52;17.80;99.90
51863;DHT22;37900;52.996;6.278;2022-09-24T10:36:21;17.70;99.90
51863;DHT22;37900;52.996;6.278;2022-09-24T10:38:48;17.80;99.90
51863;DHT22;37900;52.996;6.278;2022-09-24T10:41:28;17.80;99.90
51863;DHT22;37900;52.996;6.278;2022-09-24T10:43:56;17.80;99.90
51863;DHT22;37900;52.996;6.278;2022-09-24T10:46:50;17.80;99.90
51863;DHT22;37900;52.996;6.278;2022-09-24T11:02:41;17.80;99.90
51863;DHT22;37900;52.996;6.278;2022-09-24T11:05:16;17.80;99.90
51863;DHT22;37900;52.996;6.278;2022-09-24T11:07:50;17.80;99.90
51863;DHT22;37900;52.996;6.278;2022-09-24T11:21:45;17.80;99.90
51863;DHT22;37900;52.996;6.278;2022-09-24T11:24:25;17.80;99.90
51863;DHT22;37900;52.996;6.278;2022-09-24T11:27:19;17.80;99.90
51863;DHT22;37900;52.996;6.278;2022-09-24T11:29:58;17.80;99.90
51863;DHT22;37900;52.996;6.278;2022-09-24T11:37:44;17.80;99.90
51863;DHT22;37900;52.996;6.278;2022-09-24T11:40:31;17.80;99.90
51863;DHT22;37900;52.996;6.278;2022-09-24T11:49:08;17.70;99.90
51863;DHT22;37900;52.996;6.278;2022-09-24T11:57:22;17.70;99.90
51863;DHT22;37900;52.996;6.278;2022-09-24T12:00:13;17.70;99.90
51863;DHT22;37900;52.996;6.278;2022-09-24T12:02:48;17.70;99.90
51863;DHT22;37900;52.996;6.278;2022-09-24T12:08:11;17.70;99.90
51863;DHT22;37900;52.996;6.278;2022-09-24T12:13:21;17.70;99.90
51863;DHT22;37900;52.996;6.278;2022-09-24T12:15:55;17.70;99.90
51863;DHT22;37900;52.996;6.278;2022-09-24T12:18:39;17.70;99.90
51863;DHT22;37900;52.996;6.278;2022-09-24T12:21:17;17.70;99.90
51863;DHT22;37900;52.996;6.278;2022-09-24T12:23:45;17.70;99.90
51863;DHT22;37900;52.996;6.278;2022-09-24T12:26:12;17.70;99.90
51863;DHT22;37900;52.996;6.278;2022-09-24T12:29:01;17.70;99.90
51863;DHT22;37900;52.996;6.278;2022-09-24T12:31:59;17.70;99.90
51863;DHT22;37900;52.996;6.278;2022-09-24T12:37:45;17.70;99.90
51863;DHT22;37900;52.996;6.278;2022-09-24T12:42:59;17.70;99.90
51863;DHT22;37900;52.996;6.278;2022-09-24T12:45:27;17.70;99.90
51863;DHT22;37900;52.996;6.278;2022-09-24T12:47:58;17.70;99.90
51863;DHT22;37900;52.996;6.278;2022-09-24T12:50:27;17.70;99.90
51863;DHT22;37900;52.996;6.278;2022-09-24T12:52:53;17.70;99.90
51863;DHT22;37900;52.996;6.278;2022-09-24T12:55:25;17.70;99.90
51863;DHT22;37900;52.996;6.278;2022-09-24T12:58:04;17.70;99.90
51863;DHT22;37900;52.996;6.278;2022-09-24T13:00:40;17.70;99.90
51863;DHT22;37900;52.996;6.278;2022-09-24T13:03:59;17.70;99.90
51863;DHT22;37900;52.996;6.278;2022-09-24T13:05:52;17.70;99.90
51863;DHT22;37900;52.996;6.278;2022-09-24T13:10:56;17.70;99.90
51863;DHT22;37900;52.996;6.278;2022-09-24T13:13:28;17.70;99.90
51863;DHT22;37900;52.996;6.278;2022-09-24T13:16:03;17.70;99.90
51863;DHT22;37900;52.996;6.278;2022-09-24T13:18:32;17.80;99.90
51863;DHT22;37900;52.996;6.278;2022-09-24T13:21:01;17.80;99.90
51863;DHT22;37900;52.996;6.278;2022-09-24T13:23:29;17.80;99.90
51863;DHT22;37900;52.996;6.278;2022-09-24T13:26:01;17.80;99.90
51863;DHT22;37900;52.996;6.278;2022-09-24T13:28:32;17.80;99.90
51863;DHT22;37900;52.996;6.278;2022-09-24T13:33:50;17.80;99.90
51863;DHT22;37900;52.996;6.278;2022-09-24T13:36:24;17.80;99.90
51863;DHT22;37900;52.996;6.278;2022-09-24T13:38:56;17.80;99.90
51863;DHT22;37900;52.996;6.278;2022-09-24T13:41:35;17.80;99.90
51863;DHT22;37900;52.996;6.278;2022-09-24T13:44:27;17.90;99.90
51863;DHT22;37900;52.996;6.278;2022-09-24T13:47:03;17.80;99.90
51863;DHT22;37900;52.996;6.278;2022-09-24T13:49:30;17.80;99.90
51863;DHT22;37900;52.996;6.278;2022-09-24T13:54:49;17.90;99.90
51863;DHT22;37900;52.996;6.278;2022-09-24T13:57:26;17.80;99.90
51863;DHT22;37900;52.996;6.278;2022-09-24T14:00:14;17.90;99.90
51863;DHT22;37900;52.996;6.278;2022-09-24T14:05:22;17.80;99.90
51863;DHT22;37900;52.996;6.278;2022-09-24T14:08:06;17.90;99.90
51863;DHT22;37900;52.996;6.278;2022-09-24T14:10:33;17.90;99.90
51863;DHT22;37900;52.996;6.278;2022-09-24T14:13:18;17.90;99.90
51863;DHT22;37900;52.996;6.278;2022-09-24T14:15:58;17.90;99.90
51863;DHT22;37900;52.996;6.278;2022-09-24T14:18:26;17.90;99.90
51863;DHT22;37900;52.996;6.278;2022-09-24T14:20:59;17.90;99.90
51863;DHT22;37900;52.996;6.278;2022-09-24T14:23:37;17.90;99.90
51863;DHT22;37900;52.996;6.278;2022-09-24T14:26:06;17.90;99.90
51863;DHT22;37900;52.996;6.278;2022-09-24T14:28:33;17.90;99.90
51863;DHT22;37900;52.996;6.278;2022-09-24T14:30:59;17.90;99.90
51863;DHT22;37900;52.996;6.278;2022-09-24T14:33:30;17.90;99.90
51863;DHT22;37900;52.996;6.278;2022-09-24T14:35:58;17.90;99.90
51863;DHT22;37900;52.996;6.278;2022-09-24T14:38:31;17.90;99.90
51863;DHT22;37900;52.996;6.278;2022-09-24T14:41:19;17.90;99.90
51863;DHT22;37900;52.996;6.278;2022-09-24T14:44:08;17.90;99.90
51863;DHT22;37900;52.996;6.278;2022-09-24T14:46:49;17.90;99.90
51863;DHT22;37900;52.996;6.278;2022-09-24T14:49:19;17.90;99.90
51863;DHT22;37900;52.996;6.278;2022-09-24T14:51:59;17.90;99.90
51863;DHT22;37900;52.996;6.278;2022-09-24T14:54:37;17.90;99.90
51863;DHT22;37900;52.996;6.278;2022-09-24T14:57:24;17.90;99.90
51863;DHT22;37900;52.996;6.278;2022-09-24T14:59:50;17.90;99.90
51863;DHT22;37900;52.996;6.278;2022-09-24T15:02:32;17.90;99.90
51863;DHT22;37900;52.996;6.278;2022-09-24T15:05:01;17.90;99.90
51863;DHT22;37900;52.996;6.278;2022-09-24T15:07:29;17.80;99.90
51863;DHT22;37900;52.996;6.278;2022-09-24T15:09:57;17.90;99.90
51863;DHT22;37900;52.996;6.278;2022-09-24T15:12:32;17.90;99.90
51863;DHT22;37900;52.996;6.278;2022-09-24T15:15:42;17.90;99.90
51863;DHT22;37900;52.996;6.278;2022-09-24T15:17:49;17.90;99.90
51863;DHT22;37900;52.996;6.278;2022-09-24T15:20:15;17.90;99.90
51863;DHT22;37900;52.996;6.278;2022-09-24T15:22:40;17.90;99.90
51863;DHT22;37900;52.996;6.278;2022-09-24T15:25:06;18.00;99.90
51863;DHT22;37900;52.996;6.278;2022-09-24T15:27:37;18.00;99.90
51863;DHT22;37900;52.996;6.278;2022-09-24T15:30:04;17.90;99.90
51863;DHT22;37900;52.996;6.278;2022-09-24T15:32:32;18.00;99.90
51863;DHT22;37900;52.996;6.278;2022-09-24T15:35:00;18.00;99.90
51863;DHT22;37900;52.996;6.278;2022-09-24T15:37:28;18.00;99.90
51863;DHT22;37900;52.996;6.278;2022-09-24T15:39:58;17.90;99.90
51863;DHT22;37900;52.996;6.278;2022-09-24T15:42:26;18.00;99.90
51863;DHT22;37900;52.996;6.278;2022-09-24T15:44:52;18.00;99.90
51863;DHT22;37900;52.996;6.278;2022-09-24T15:47:19;18.00;99.90
51863;DHT22;37900;52.996;6.278;2022-09-24T15:49:45;18.00;99.90
51863;DHT22;37900;52.996;6.278;2022-09-24T15:52:13;18.00;99.90
51863;DHT22;37900;52.996;6.278;2022-09-24T15:54:40;18.00;99.90
51863;DHT22;37900;52.996;6.278;2022-09-24T15:57:05;18.00;99.90
51863;DHT22;37900;52.996;6.278;2022-09-24T15:59:31;18.00;99.90
51863;DHT22;37900;52.996;6.278;2022-09-24T16:02:00;18.00;99.90
51863;DHT22;37900;52.996;6.278;2022-09-24T16:04:27;18.00;99.90
51863;DHT22;37900;52.996;6.278;2022-09-24T16:06:53;18.00;99.90
51863;DHT22;37900;52.996;6.278;2022-09-24T16:09:19;18.00;99.90
51863;DHT22;37900;52.996;6.278;2022-09-24T16:11:44;18.00;99.90
51863;DHT22;37900;52.996;6.278;2022-09-24T16:14:11;18.00;99.90
51863;DHT22;37900;52.996;6.278;2022-09-24T16:16:38;18.00;99.90
51863;DHT22;37900;52.996;6.278;2022-09-24T16:19:03;18.00;99.90
51863;DHT22;37900;52.996;6.278;2022-09-24T16:21:32;18.00;99.90
51863;DHT22;37900;52.996;6.278;2022-09-24T16:23:57;18.00;99.90
51863;DHT22;37900;52.996;6.278;2022-09-24T16:26:24;18.00;99.90
51863;DHT22;37900;52.996;6.278;2022-09-24T16:28:50;18.00;99.90
51863;DHT22;37900;52.996;6.278;2022-09-24T16:31:17;18.00;99.90
51863;DHT22;37900;52.996;6.278;2022-09-24T16:33:43;18.00;99.90
51863;DHT22;37900;52.996;6.278;2022-09-24T16:36:09;18.00;99.90
51863;DHT22;37900;52.996;6.278;2022-09-24T16:38:36;18.00;99.90
51863;DHT22;37900;52.996;6.278;2022-09-24T16:41:04;18.00;99.90
51863;DHT22;37900;52.996;6.278;2022-09-24T16:43:30;18.00;99.90
51863;DHT22;37900;52.996;6.278;2022-09-24T16:46:04;18.00;99.90
51863;DHT22;37900;52.996;6.278;2022-09-24T16:48:30;18.00;99.90
51863;DHT22;37900;52.996;6.278;2022-09-24T16:51:04;18.00;99.90
51863;DHT22;37900;52.996;6.278;2022-09-24T16:53:31;18.00;99.90
51863;DHT22;37900;52.996;6.278;2022-09-24T16:56:05;18.00;99.90
51863;DHT22;37900;52.996;6.278;2022-09-24T16:58:32;18.10;99.90
51863;DHT22;37900;52.996;6.278;2022-09-24T17:00:57;18.10;99.90
51863;DHT22;37900;52.996;6.278;2022-09-24T17:03:23;18.10;99.90
51863;DHT22;37900;52.996;6.278;2022-09-24T17:05:49;18.10;99.90
51863;DHT22;37900;52.996;6.278;2022-09-24T17:08:15;18.10;99.90
51863;DHT22;37900;52.996;6.278;2022-09-24T17:10:51;18.10;99.90
51863;DHT22;37900;52.996;6.278;2022-09-24T17:13:17;18.10;99.90
51863;DHT22;37900;52.996;6.278;2022-09-24T17:15:43;18.10;99.90
51863;DHT22;37900;52.996;6.278;2022-09-24T17:18:09;18.20;99.90
51863;DHT22;37900;52.996;6.278;2022-09-24T17:20:34;18.20;99.90
51863;DHT22;37900;52.996;6.278;2022-09-24T17:23:00;18.20;99.90
51863;DHT22;37900;52.996;6.278;2022-09-24T17:25:26;18.10;99.90
51863;DHT22;37900;52.996;6.278;2022-09-24T17:27:52;18.10;99.90
51863;DHT22;37900;52.996;6.278;2022-09-24T17:30:18;18.10;99.90
51863;DHT22;37900;52.996;6.278;2022-09-24T17:32:44;18.20;99.90